Time;durP1;ratioP1;P1;durP2;ratioP2;P2;SDS_P1;SDS_P2;PMS_P1;PMS_P2;Temp;Humidity;BMP_temperature;BMP_pressure;BME280_temperature;BME280_humidity;BME280_pressure;Samples;Min_cycle;Max_cycle;Signal;HPM_P1;HPM_P2
2023/05/10 00:01:26;;;;;;;14.10;5.60;;;14.50;99.90;;;;;;4022282;29;20178;-95
2023/05/10 00:03:27;;;;;;;18.20;6.57;;;14.50;99.90;;;;;;4006987;29;20259;-94
2023/05/10 00:05:28;;;;;;;15.70;6.38;;;14.50;99.90;;;;;;4022159;29;20198;-94
2023/05/10 00:07:29;;;;;;;20.77;6.60;;;14.40;99.90;;;;;;4006945;29;20183;-94
2023/05/10 00:09:30;;;;;;;17.77;5.97;;;14.40;99.90;;;;;;4006877;29;20203;-94
2023/05/10 00:11:31;;;;;;;19.48;6.97;;;14.40;99.90;;;;;;4021568;29;20206;-94
2023/05/10 00:13:32;;;;;;;19.65;6.93;;;14.50;99.90;;;;;;4021618;29;20259;-94
2023/05/10 00:15:34;;;;;;;19.33;7.00;;;14.60;99.90;;;;;;4014599;29;20686;-93
2023/05/10 00:17:35;;;;;;;19.15;7.03;;;14.60;99.90;;;;;;4006628;29;20586;-94
2023/05/10 00:19:36;;;;;;;18.27;7.10;;;14.60;99.90;;;;;;4006620;29;20179;-94
2023/05/10 00:21:36;;;;;;;14.93;6.57;;;14.60;99.90;;;;;;4006623;29;20183;-94
2023/05/10 00:23:38;;;;;;;18.45;7.10;;;14.50;99.90;;;;;;4006445;29;20175;-95
2023/05/10 00:25:39;;;;;;;16.70;7.35;;;14.50;99.90;;;;;;4021622;29;20178;-94
2023/05/10 00:27:40;;;;;;;13.18;6.53;;;14.50;99.90;;;;;;4006382;29;20257;-95
2023/05/10 00:29:40;;;;;;;19.52;7.47;;;14.40;99.90;;;;;;4006234;29;20224;-94
2023/05/10 00:31:42;;;;;;;17.60;7.25;;;14.40;99.90;;;;;;4021570;29;20190;-95
2023/05/10 00:33:44;;;;;;;23.65;7.22;;;14.40;99.90;;;;;;4006376;29;20644;-95
2023/05/10 00:35:45;;;;;;;20.73;7.68;;;14.30;99.90;;;;;;4006223;29;20210;-93
2023/05/10 00:37:45;;;;;;;19.00;7.32;;;14.30;99.90;;;;;;4006400;29;20175;-94
2023/05/10 00:39:46;;;;;;;20.52;7.03;;;14.30;99.90;;;;;;4021474;29;20189;-95
2023/05/10 00:41:47;;;;;;;15.80;7.00;;;14.30;99.90;;;;;;4021740;29;20191;-94
2023/05/10 00:43:48;;;;;;;18.23;7.25;;;14.30;99.90;;;;;;4006349;29;20266;-94
2023/05/10 00:45:49;;;;;;;20.27;7.50;;;14.20;99.90;;;;;;4021601;29;20186;-94
2023/05/10 00:47:54;;;;;;;15.60;6.47;;;14.20;99.90;;;;;;4006277;29;20624;-93
2023/05/10 00:49:56;;;;;;;22.55;7.97;;;14.20;99.90;;;;;;4006259;29;20259;-93
2023/05/10 00:51:57;;;;;;;22.55;7.97;;;14.20;99.90;;;;;;4021403;29;20190;-94
2023/05/10 00:53:58;;;;;;;19.27;7.97;;;14.20;99.90;;;;;;4021498;29;20190;-94
2023/05/10 00:55:59;;;;;;;17.70;7.82;;;14.20;99.90;;;;;;4006202;29;20225;-93
2023/05/10 00:58:01;;;;;;;19.75;9.07;;;14.20;99.90;;;;;;4006149;29;20212;-93
2023/05/10 01:00:03;;;;;;;18.75;7.43;;;14.20;99.90;;;;;;4006300;29;20269;-94
2023/05/10 01:02:04;;;;;;;14.65;7.85;;;14.30;99.90;;;;;;4006520;29;20167;-94
2023/05/10 01:04:05;;;;;;;16.83;8.50;;;14.40;99.90;;;;;;4006277;29;20206;-94
2023/05/10 01:06:07;;;;;;;14.00;7.72;;;14.40;99.90;;;;;;4021333;29;20186;-93
2023/05/10 01:08:08;;;;;;;18.70;9.18;;;14.40;99.90;;;;;;4006017;29;20174;-94
2023/05/10 01:10:10;;;;;;;22.55;8.02;;;14.50;99.90;;;;;;4006104;29;20179;-93
2023/05/10 01:12:11;;;;;;;18.20;8.45;;;14.50;99.90;;;;;;4005801;29;20178;-93
2023/05/10 01:14:12;;;;;;;17.63;7.22;;;14.50;99.90;;;;;;4005853;29;20209;-94
2023/05/10 01:16:15;;;;;;;15.45;8.52;;;14.50;99.90;;;;;;4021130;29;20296;-94
2023/05/10 01:18:20;;;;;;;22.23;8.48;;;14.30;99.90;;;;;;4006452;29;20175;-93
2023/05/10 01:20:21;;;;;;;14.18;7.60;;;14.40;99.90;;;;;;4005701;29;20544;-95
2023/05/10 01:22:58;;;;;;;15.70;7.63;;;14.30;99.90;;;;;;4005641;29;20214;-94
2023/05/10 01:25:08;;;;;;;21.20;7.93;;;14.30;99.90;;;;;;4005930;29;20210;-94
2023/05/10 01:27:24;;;;;;;15.20;7.70;;;14.30;99.90;;;;;;4006202;29;20187;-94
2023/05/10 01:30:03;;;;;;;17.65;7.57;;;14.30;99.90;;;;;;4005882;29;20178;-94
2023/05/10 01:32:29;;;;;;;16.73;8.25;;;14.20;99.90;;;;;;4005881;29;20222;-93
2023/05/10 01:35:05;;;;;;;19.58;8.25;;;14.20;99.90;;;;;;3993806;29;20199;-93
2023/05/10 01:37:15;;;;;;;19.73;8.73;;;14.30;99.90;;;;;;4005678;29;20194;-94
2023/05/10 01:39:32;;;;;;;19.65;8.85;;;14.30;99.90;;;;;;4007120;29;20247;-94
2023/05/10 01:41:50;;;;;;;16.90;9.27;;;14.30;99.90;;;;;;4008764;29;20274;-94
2023/05/10 01:44:00;;;;;;;19.13;8.93;;;14.30;99.90;;;;;;4008602;29;20646;-94
2023/05/10 01:46:10;;;;;;;17.92;8.02;;;14.30;99.90;;;;;;4008464;29;20190;-94
2023/05/10 01:48:13;;;;;;;20.30;9.15;;;14.30;99.90;;;;;;4008887;29;20193;-94
2023/05/10 01:50:24;;;;;;;23.02;9.15;;;14.40;99.90;;;;;;4024300;29;20253;-94
2023/05/10 01:52:36;;;;;;;20.58;9.20;;;14.40;99.90;;;;;;4008783;29;20186;-94
2023/05/10 01:54:46;;;;;;;23.88;9.30;;;14.50;99.90;;;;;;4023970;29;20239;-93
2023/05/10 01:56:59;;;;;;;24.83;10.27;;;14.50;99.90;;;;;;4023600;29;20282;-94
2023/05/10 01:59:08;;;;;;;22.48;9.98;;;14.50;99.90;;;;;;4008659;29;20614;-95
2023/05/10 02:01:10;;;;;;;21.83;10.63;;;14.40;99.90;;;;;;4023758;29;20536;-94
2023/05/10 02:03:13;;;;;;;27.10;10.77;;;14.30;99.90;;;;;;4023624;29;20190;-94
2023/05/10 02:05:16;;;;;;;23.55;11.05;;;14.30;99.90;;;;;;4008067;29;20206;-93
2023/05/10 02:07:17;;;;;;;24.38;10.45;;;14.50;99.90;;;;;;4023534;29;20182;-93
2023/05/10 02:09:20;;;;;;;23.38;10.68;;;14.40;99.90;;;;;;4023518;29;20174;-93
2023/05/10 02:11:22;;;;;;;24.55;11.65;;;14.50;99.90;;;;;;4008432;29;20187;-93
2023/05/10 02:13:25;;;;;;;20.83;10.93;;;14.60;99.90;;;;;;4008348;29;20780;-94
2023/05/10 02:15:27;;;;;;;21.30;10.43;;;14.50;99.90;;;;;;4023535;29;20608;-93
2023/05/10 02:17:30;;;;;;;23.80;10.68;;;14.60;99.90;;;;;;4023802;29;20194;-93
2023/05/10 02:19:32;;;;;;;20.80;10.18;;;14.70;99.90;;;;;;4023360;29;20644;-92
2023/05/10 02:21:34;;;;;;;23.02;10.60;;;14.60;99.90;;;;;;4023398;29;20519;-94
2023/05/10 02:23:36;;;;;;;20.33;10.93;;;14.60;99.90;;;;;;4023476;29;20179;-94
2023/05/10 02:25:38;;;;;;;23.17;10.20;;;14.70;99.90;;;;;;4023357;29;20175;-94
2023/05/10 02:27:43;;;;;;;21.95;9.98;;;14.60;99.90;;;;;;4008059;29;20194;-93
2023/05/10 02:29:45;;;;;;;19.85;9.68;;;14.60;99.90;;;;;;4008001;29;20266;-93
2023/05/10 02:31:47;;;;;;;22.92;9.60;;;14.60;99.90;;;;;;4008196;29;20617;-93
2023/05/10 02:33:48;;;;;;;23.25;9.80;;;14.50;99.90;;;;;;4008127;29;20688;-93
2023/05/10 02:35:51;;;;;;;20.13;10.27;;;14.70;99.90;;;;;;4007893;29;20276;-94
2023/05/10 02:37:53;;;;;;;20.60;10.20;;;14.70;99.90;;;;;;4007998;29;20193;-93
2023/05/10 02:39:56;;;;;;;20.10;9.40;;;14.60;99.90;;;;;;4007772;29;20510;-94
2023/05/10 02:41:58;;;;;;;24.15;10.40;;;14.60;99.90;;;;;;4023214;29;20186;-92
2023/05/10 02:44:02;;;;;;;24.33;11.02;;;14.50;99.90;;;;;;4023400;29;20675;-94
2023/05/10 02:46:03;;;;;;;29.20;11.15;;;14.70;99.90;;;;;;4007948;29;20185;-94
2023/05/10 02:48:05;;;;;;;25.58;10.02;;;14.50;99.90;;;;;;4008020;29;20240;-93
2023/05/10 02:50:06;;;;;;;23.20;10.85;;;14.50;99.90;;;;;;4007353;29;20179;-94
2023/05/10 02:52:09;;;;;;;19.70;10.10;;;14.50;99.90;;;;;;4007476;29;20579;-94
2023/05/10 02:54:15;;;;;;;21.85;10.95;;;14.50;99.90;;;;;;4007650;29;20299;-92
2023/05/10 02:56:25;;;;;;;30.02;12.48;;;14.50;99.90;;;;;;4007725;29;20223;-92
2023/05/10 02:58:26;;;;;;;24.05;11.02;;;14.70;99.90;;;;;;4008092;29;20183;-92
2023/05/10 03:00:28;;;;;;;21.95;11.55;;;14.60;99.90;;;;;;4007614;29;20270;-92
2023/05/10 03:02:30;;;;;;;24.65;12.18;;;14.50;99.90;;;;;;4007516;29;20193;-94
2023/05/10 03:04:31;;;;;;;23.95;11.60;;;14.60;99.90;;;;;;4022993;29;20210;-93
2023/05/10 03:06:33;;;;;;;25.13;13.75;;;14.60;99.90;;;;;;4022704;29;20548;-91
2023/05/10 03:08:34;;;;;;;28.30;13.30;;;14.70;99.90;;;;;;4022632;29;20185;-93
2023/05/10 03:10:45;;;;;;;27.67;14.30;;;14.70;99.90;;;;;;4007493;29;20191;-92
2023/05/10 03:13:05;;;;;;;28.02;14.07;;;14.60;99.90;;;;;;4007542;29;20174;-93
2023/05/10 03:15:37;;;;;;;31.45;13.90;;;14.80;99.90;;;;;;4007487;29;20711;-93
2023/05/10 03:17:46;;;;;;;31.52;14.48;;;14.70;99.90;;;;;;4022378;29;20197;-93
2023/05/10 03:19:58;;;;;;;26.15;13.82;;;14.50;99.90;;;;;;4007079;29;20181;-93
2023/05/10 03:22:08;;;;;;;28.35;13.93;;;14.60;99.90;;;;;;4022754;29;20189;-94
2023/05/10 03:24:11;;;;;;;25.63;13.60;;;14.40;99.90;;;;;;4007319;29;20210;-92
2023/05/10 03:26:20;;;;;;;29.20;13.40;;;14.50;99.90;;;;;;4022327;29;20234;-94
2023/05/10 03:28:24;;;;;;;25.45;13.95;;;14.40;99.90;;;;;;4022253;29;20178;-93
2023/05/10 03:30:25;;;;;;;25.40;13.75;;;14.50;99.90;;;;;;4022553;29;20250;-92
2023/05/10 03:32:28;;;;;;;27.52;14.10;;;14.60;99.90;;;;;;4022485;29;20332;-92
2023/05/10 03:34:31;;;;;;;30.05;13.85;;;14.60;99.90;;;;;;4022973;29;20246;-93
2023/05/10 03:36:32;;;;;;;30.52;14.50;;;14.70;99.90;;;;;;4007252;29;20576;-95
2023/05/10 03:38:33;;;;;;;24.92;13.05;;;14.70;99.90;;;;;;4007331;29;20270;-91
2023/05/10 03:40:34;;;;;;;29.55;14.45;;;14.70;99.90;;;;;;4022742;29;20174;-93
2023/05/10 03:42:35;;;;;;;28.55;14.80;;;14.70;99.90;;;;;;4022653;29;20178;-94
2023/05/10 03:44:37;;;;;;;30.45;14.45;;;14.70;99.90;;;;;;4007230;29;20198;-93
2023/05/10 03:46:37;;;;;;;31.60;16.30;;;14.70;99.90;;;;;;4007129;29;20292;-93
2023/05/10 03:48:38;;;;;;;30.60;15.38;;;14.70;99.90;;;;;;4006924;29;20175;-93
2023/05/10 03:50:39;;;;;;;38.53;16.73;;;14.70;99.90;;;;;;4007089;29;20709;-93
2023/05/10 03:52:40;;;;;;;31.58;16.08;;;14.60;99.90;;;;;;4022173;29;20178;-93
2023/05/10 03:54:41;;;;;;;30.15;17.10;;;14.40;99.90;;;;;;4006909;29;20195;-92
2023/05/10 03:56:42;;;;;;;38.13;17.88;;;14.50;99.90;;;;;;4006941;29;20249;-94
2023/05/10 03:58:43;;;;;;;34.47;16.02;;;14.50;99.90;;;;;;4022274;29;20694;-92
2023/05/10 04:00:45;;;;;;;34.03;17.95;;;14.60;99.90;;;;;;4006726;29;20652;-93
2023/05/10 04:02:47;;;;;;;36.63;18.60;;;14.60;99.90;;;;;;4006655;29;20175;-95
2023/05/10 04:04:52;;;;;;;37.33;18.25;;;14.70;99.90;;;;;;4007237;29;20687;-93
2023/05/10 04:06:54;;;;;;;42.00;18.85;;;14.70;99.90;;;;;;4006699;29;20179;-94
2023/05/10 04:08:55;;;;;;;35.95;18.45;;;14.50;99.90;;;;;;4006726;29;20652;-92
2023/05/10 04:11:07;;;;;;;36.60;17.52;;;14.50;99.90;;;;;;4006516;29;20179;-93
2023/05/10 04:13:08;;;;;;;35.58;17.48;;;14.30;99.90;;;;;;4006464;29;20283;-93
2023/05/10 04:15:09;;;;;;;33.53;16.98;;;14.50;99.90;;;;;;4006458;29;20199;-93
2023/05/10 04:17:10;;;;;;;35.78;17.10;;;14.50;99.90;;;;;;4022024;29;20245;-93
2023/05/10 04:19:11;;;;;;;41.70;16.98;;;14.30;99.90;;;;;;4021896;29;20181;-93
2023/05/10 04:21:13;;;;;;;34.15;16.48;;;14.30;99.90;;;;;;4021506;29;20555;-93
2023/05/10 04:23:16;;;;;;;38.97;15.45;;;14.40;99.90;;;;;;4021578;29;20174;-93
2023/05/10 04:25:17;;;;;;;29.30;14.80;;;14.50;99.90;;;;;;4006422;29;20211;-93
2023/05/10 04:27:17;;;;;;;27.60;13.75;;;14.50;99.90;;;;;;4006441;29;20262;-95
2023/05/10 04:29:20;;;;;;;33.05;13.75;;;14.40;99.90;;;;;;4007187;29;20255;-94
2023/05/10 04:31:21;;;;;;;34.28;14.05;;;14.30;99.90;;;;;;4021804;29;20675;-94
2023/05/10 04:33:22;;;;;;;31.85;12.65;;;14.40;99.90;;;;;;4006198;29;20214;-93
2023/05/10 04:35:23;;;;;;;35.50;13.38;;;14.50;99.90;;;;;;4021388;29;20213;-93
2023/05/10 04:37:23;;;;;;;32.53;13.52;;;14.40;99.90;;;;;;4006513;29;20185;-94
2023/05/10 04:39:24;;;;;;;27.50;12.30;;;14.40;99.90;;;;;;4006630;29;20254;-94
2023/05/10 04:41:25;;;;;;;30.13;12.90;;;14.50;99.90;;;;;;4006712;29;20210;-94
2023/05/10 04:43:26;;;;;;;26.10;12.15;;;14.40;99.90;;;;;;4006468;29;20668;-94
2023/05/10 04:45:27;;;;;;;26.70;11.75;;;14.40;99.90;;;;;;4006177;29;20190;-94
2023/05/10 04:47:28;;;;;;;26.33;11.30;;;14.30;99.90;;;;;;4021397;29;20632;-95
2023/05/10 04:49:29;;;;;;;25.13;11.82;;;14.20;99.90;;;;;;4021500;29;20178;-94
2023/05/10 04:51:31;;;;;;;25.00;12.15;;;14.30;99.90;;;;;;4006489;29;20561;-94
2023/05/10 04:53:32;;;;;;;23.08;10.85;;;14.20;99.90;;;;;;4006030;29;20179;-92
2023/05/10 04:55:32;;;;;;;30.45;11.70;;;14.20;99.90;;;;;;4005854;29;20553;-93
2023/05/10 04:57:33;;;;;;;30.67;11.35;;;14.00;99.90;;;;;;4006032;29;20281;-94
2023/05/10 04:59:37;;;;;;;32.90;11.40;;;14.10;99.90;;;;;;4021299;29;20184;-93
2023/05/10 05:01:37;;;;;;;32.05;11.52;;;14.20;99.90;;;;;;4006213;29;20174;-94
2023/05/10 05:03:38;;;;;;;29.02;11.13;;;14.10;99.90;;;;;;4005864;29;20639;-93
2023/05/10 05:05:39;;;;;;;21.48;10.93;;;14.00;99.90;;;;;;4021450;29;20175;-93
2023/05/10 05:07:50;;;;;;;22.48;10.60;;;14.00;99.90;;;;;;4021253;29;20624;-93
2023/05/10 05:09:51;;;;;;;22.27;11.18;;;14.00;99.90;;;;;;4021402;29;20273;-95
2023/05/10 05:11:52;;;;;;;32.13;11.35;;;14.10;99.90;;;;;;4005829;29;20179;-95
2023/05/10 05:13:53;;;;;;;32.05;11.95;;;14.10;99.90;;;;;;4021875;29;20273;-94
2023/05/10 05:15:54;;;;;;;33.75;12.15;;;14.10;99.90;;;;;;4024514;29;20643;-96
2023/05/10 05:18:02;;;;;;;32.42;12.82;;;14.00;99.90;;;;;;4009421;29;20225;-95
2023/05/10 05:20:34;;;;;;;27.95;12.45;;;14.00;99.90;;;;;;4009373;29;20179;-94
2023/05/10 05:22:42;;;;;;;30.92;12.50;;;14.00;99.90;;;;;;4021013;29;20262;-95
2023/05/10 05:28:38;;;;;;;27.70;13.10;;;13.90;99.90;;;;;;4023186;29;20185;-95
2023/05/10 05:31:36;;;;;;;29.30;13.10;;;14.00;99.90;;;;;;4027477;29;20181;-94
2023/05/10 05:34:17;;;;;;;41.70;14.18;;;13.90;99.90;;;;;;4020694;29;20214;-95
2023/05/10 08:30:47;;;;;;;10.77;6.47;;;14.30;99.90;;;;;;4937597;23;20224;31
2023/05/10 08:33:04;;;;;;;9.93;6.40;;;14.20;99.90;;;;;;4010381;29;20213;-95
2023/05/10 08:35:05;;;;;;;10.77;6.57;;;14.40;99.90;;;;;;4032428;29;20190;-93
2023/05/10 08:37:38;;;;;;;12.70;7.07;;;14.50;99.90;;;;;;4032628;29;20178;-93
2023/05/10 08:39:57;;;;;;;12.75;7.10;;;14.60;99.90;;;;;;4034060;29;20174;-92
2023/05/10 08:42:03;;;;;;;15.50;6.82;;;14.70;99.90;;;;;;4015387;29;20200;-92
2023/05/10 08:44:15;;;;;;;13.20;7.07;;;14.70;99.90;;;;;;4014892;29;20266;-93
2023/05/10 08:46:27;;;;;;;9.18;6.72;;;14.80;99.90;;;;;;4012845;29;20268;-93
2023/05/10 11:26:16;;;;;;;13.93;7.53;;;16.30;99.90;;;;;;4084185;23;20292;-96
2023/05/10 12:08:04;;;;;;;10.38;6.85;;;17.50;99.90;;;;;;4087179;23;20800;-96
2023/05/10 12:14:26;;;;;;;11.05;7.00;;;18.00;99.90;;;;;;3990584;29;20216;-95
2023/05/10 12:25:09;;;;;;;9.68;7.20;;;17.90;99.90;;;;;;3845830;30;20772;-94
2023/05/10 12:32:32;;;;;;;;;;;;;;;;;;;;;
2023/05/10 12:42:46;;;;;;;;;;;;;;;;;;;;;
2023/05/10 12:50:19;;;;;;;10.73;7.80;;;18.20;99.90;;;;;;4111999;23;20720;-94
2023/05/10 13:03:42;;;;;;;13.80;8.13;;;18.10;99.90;;;;;;3931536;30;20220;-93
2023/05/10 13:06:31;;;;;;;11.68;8.20;;;18.30;99.90;;;;;;3944570;30;20247;-93
2023/05/10 13:16:13;;;;;;;11.15;7.60;;;18.00;99.90;;;;;;3916143;30;20250;-94
2023/05/10 13:19:12;;;;;;;;;;;;;;;;;;;;;
2023/05/10 13:53:18;;;;;;;12.52;9.15;;;18.30;99.90;;;;;;4235364;23;20649;-95
2023/05/10 13:56:49;;;;;;;15.73;8.95;;;18.40;99.90;;;;;;3993463;29;20526;-96
2023/05/10 13:59:32;;;;;;;;;;;;;;;;;;;;;
2023/05/10 14:10:43;;;;;;;;;;;;;;;;;;;;;
2023/05/10 14:28:29;;;;;;;19.40;8.88;;;17.80;99.90;;;;;;4023961;29;20545;-96
2023/05/10 14:30:36;;;;;;;13.68;9.00;;;17.70;99.90;;;;;;3979640;29;20191;-94
2023/05/10 14:32:40;;;;;;;11.55;6.20;;;17.60;99.90;;;;;;4007650;29;20177;-94
2023/05/10 14:35:12;;;;;;;10.50;5.15;;;17.30;99.90;;;;;;4013784;29;20226;-95
2023/05/10 14:37:19;;;;;;;10.10;5.25;;;16.50;99.90;;;;;;4023162;29;20568;-95
2023/05/10 14:39:31;;;;;;;10.18;5.03;;;16.40;99.90;;;;;;4008782;29;20182;-95
2023/05/10 14:41:40;;;;;;;11.07;4.68;;;16.50;99.90;;;;;;4008566;29;20572;-95
2023/05/10 14:43:41;;;;;;;13.73;5.28;;;16.10;99.90;;;;;;4008440;29;20175;-95
2023/05/10 14:45:48;;;;;;;18.95;5.32;;;15.70;99.90;;;;;;4024153;29;20182;-95
2023/05/10 14:47:49;;;;;;;15.15;5.65;;;16.00;99.90;;;;;;4008816;29;20190;-95
2023/05/10 14:50:09;;;;;;;10.93;5.40;;;16.10;99.90;;;;;;4023865;29;20185;-96
2023/05/10 14:52:34;;;;;;;13.32;4.65;;;16.10;99.90;;;;;;4026771;29;20215;-95
2023/05/10 14:54:58;;;;;;;13.45;4.70;;;16.30;99.90;;;;;;4036425;29;20701;-95
2023/05/10 15:00:05;;;;;;;16.10;4.93;;;16.30;99.90;;;;;;4024422;29;20206;-95
2023/05/10 15:02:32;;;;;;;;;;;;;;;;;;;;;
2023/05/10 15:04:55;;;;;;;14.52;5.28;;;16.50;99.90;;;;;;4023844;29;20202;-96
2023/05/10 15:07:01;;;;;;;11.75;4.60;;;16.60;99.90;;;;;;4008096;29;20703;-95
2023/05/10 15:09:10;;;;;;;12.93;4.95;;;16.80;99.90;;;;;;4023414;29;20194;-95
2023/05/10 15:11:11;;;;;;;10.90;4.47;;;16.70;99.90;;;;;;4008457;29;20187;-95
2023/05/10 15:13:19;;;;;;;12.20;5.45;;;16.80;99.90;;;;;;4008448;29;20266;-94
2023/05/10 15:15:20;;;;;;;16.75;4.90;;;16.80;99.90;;;;;;4008204;29;20218;-95
2023/05/10 15:17:30;;;;;;;13.00;4.72;;;16.90;99.90;;;;;;4007766;29;20541;-94
2023/05/10 15:19:38;;;;;;;11.45;4.28;;;16.90;99.90;;;;;;4008873;29;20175;-95
2023/05/10 15:21:44;;;;;;;9.63;3.55;;;17.00;99.90;;;;;;4024353;29;20279;-95
2023/05/10 15:24:10;;;;;;;8.82;3.60;;;17.00;99.90;;;;;;4008363;29;20265;-96
2023/05/10 15:26:16;;;;;;;9.88;3.58;;;17.10;99.90;;;;;;4009097;29;20222;-95
2023/05/10 15:28:47;;;;;;;6.88;3.05;;;17.10;99.90;;;;;;4008798;29;20233;-95
2023/05/10 15:30:58;;;;;;;9.30;3.22;;;17.10;99.90;;;;;;4023460;29;20178;-94
2023/05/10 15:33:16;;;;;;;11.35;3.50;;;17.00;99.90;;;;;;4023203;29;20190;-95
2023/05/10 15:35:18;;;;;;;14.32;3.33;;;17.00;99.90;;;;;;4007735;29;20700;-95
2023/05/10 15:37:24;;;;;;;9.30;3.20;;;16.90;99.90;;;;;;4008166;29;20255;-94
2023/05/10 15:39:25;;;;;;;9.05;2.97;;;16.90;99.90;;;;;;4007562;29;20186;-94
2023/05/10 15:41:32;;;;;;;8.68;3.33;;;16.90;99.90;;;;;;4008837;29;20217;-94
2023/05/10 15:43:35;;;;;;;9.73;3.80;;;16.90;99.90;;;;;;4007361;29;20245;-95
2023/05/10 15:45:36;;;;;;;10.65;4.65;;;16.90;99.90;;;;;;4022540;29;20693;-94
2023/05/10 15:47:39;;;;;;;10.52;4.35;;;17.10;99.90;;;;;;4007695;29;20238;-94
2023/05/10 15:49:45;;;;;;;11.52;4.45;;;17.10;99.90;;;;;;4007876;29;20182;-95
2023/05/10 15:51:53;;;;;;;9.27;4.22;;;17.00;99.90;;;;;;4023068;29;20223;-95
2023/05/10 15:54:06;;;;;;;10.52;4.55;;;17.00;99.90;;;;;;4007479;29;20672;-94
2023/05/10 15:56:14;;;;;;;11.18;4.80;;;17.10;99.90;;;;;;4007558;29;20193;-93
2023/05/10 15:58:26;;;;;;;9.65;4.50;;;17.00;99.90;;;;;;4023823;29;20177;-94
2023/05/10 16:00:29;;;;;;;8.65;4.38;;;17.10;99.90;;;;;;4022723;29;20217;-94
2023/05/10 16:03:04;;;;;;;;;;;;;;;;;;;;;
2023/05/10 16:05:09;;;;;;;;;;;;;;;;;;;;;
2023/05/10 16:07:48;;;;;;;11.00;5.32;;;16.80;99.90;;;;;;4022269;29;20278;-95
2023/05/10 16:09:56;;;;;;;14.30;5.93;;;17.00;99.90;;;;;;4022211;29;20178;-94
2023/05/10 16:12:02;;;;;;;16.17;6.43;;;17.10;99.90;;;;;;4007501;29;20659;-94
2023/05/10 16:14:36;;;;;;;14.23;6.35;;;17.40;99.90;;;;;;4022277;29;20198;-95
2023/05/10 16:27:47;;;;;;;;;;;;;;;;;;;;;
2023/05/10 16:37:30;;;;;;;13.55;8.27;;;17.30;99.90;;;;;;3939936;30;20193;-95
2023/05/10 16:39:31;;;;;;;17.58;8.52;;;17.20;99.90;;;;;;3939766;30;20197;-92
2023/05/10 16:41:33;;;;;;;13.60;8.43;;;17.20;99.90;;;;;;4004546;29;20797;-91
2023/05/10 16:43:35;;;;;;;15.57;8.43;;;17.10;99.90;;;;;;4023206;29;20182;-95
2023/05/10 16:45:36;;;;;;;14.38;8.35;;;17.10;99.90;;;;;;4022177;29;20527;-91
2023/05/10 16:47:38;;;;;;;15.10;7.40;;;17.20;99.90;;;;;;4006836;29;20218;-92
2023/05/10 16:49:39;;;;;;;14.75;5.55;;;17.50;99.90;;;;;;4006422;29;20289;-91
2023/05/10 16:51:40;;;;;;;12.65;5.90;;;17.60;99.90;;;;;;4021700;29;20174;-91
2023/05/10 16:53:41;;;;;;;13.07;5.95;;;17.80;99.90;;;;;;4006589;29;20667;-91
2023/05/10 16:55:41;;;;;;;18.73;6.90;;;17.70;99.90;;;;;;4007712;29;20660;-94
2023/05/10 16:57:42;;;;;;;17.80;8.35;;;17.40;99.90;;;;;;4022188;29;20182;-91
2023/05/10 16:59:43;;;;;;;15.00;9.25;;;16.90;99.90;;;;;;4007098;29;20544;-96
2023/05/10 17:01:44;;;;;;;16.95;7.78;;;16.90;99.90;;;;;;4006399;29;20175;-91
2023/05/10 17:03:45;;;;;;;16.35;7.68;;;17.10;99.90;;;;;;4036898;29;20180;-91
2023/05/10 17:05:46;;;;;;;19.35;7.75;;;17.10;99.90;;;;;;4021513;29;20175;-91
2023/05/10 17:07:48;;;;;;;19.17;8.82;;;17.00;99.90;;;;;;4006337;29;20216;-91
2023/05/10 17:09:48;;;;;;;22.20;8.90;;;16.80;99.90;;;;;;4007039;29;20267;-91
2023/05/10 17:11:49;;;;;;;21.73;8.52;;;16.60;99.90;;;;;;4009622;29;20214;-92
2023/05/10 17:13:51;;;;;;;20.38;9.38;;;16.50;99.90;;;;;;4024823;29;20636;-92
2023/05/10 17:15:52;;;;;;;17.55;9.32;;;16.40;99.90;;;;;;4009278;29;20175;-92
2023/05/10 17:17:52;;;;;;;15.85;8.75;;;16.10;99.90;;;;;;4024697;29;20542;-91
2023/05/10 17:19:53;;;;;;;20.77;9.65;;;16.20;99.90;;;;;;4009432;29;20266;-91
2023/05/10 17:21:54;;;;;;;17.38;9.27;;;16.40;99.90;;;;;;4009254;29;20183;-91
2023/05/10 17:23:55;;;;;;;20.98;8.55;;;16.50;99.90;;;;;;4009004;29;20288;-91
2023/05/10 17:25:56;;;;;;;18.27;8.93;;;16.70;99.90;;;;;;4009007;29;20175;-92
2023/05/10 17:27:56;;;;;;;17.90;8.55;;;16.80;99.90;;;;;;4009566;29;20206;-92
2023/05/10 17:29:58;;;;;;;20.73;9.32;;;16.70;99.90;;;;;;4024294;29;20175;-91
2023/05/10 17:31:59;;;;;;;19.75;9.00;;;16.60;99.90;;;;;;4024562;29;20638;-91
2023/05/10 17:33:59;;;;;;;20.00;9.00;;;16.40;99.90;;;;;;4024128;29;20202;-91
2023/05/10 17:36:00;;;;;;;19.83;8.48;;;15.80;99.90;;;;;;4024345;29;20274;-92
2023/05/10 17:38:01;;;;;;;14.70;7.97;;;15.80;99.90;;;;;;4024492;29;20182;-92
2023/05/10 17:40:04;;;;;;;16.45;9.13;;;15.90;99.90;;;;;;4009077;29;20194;-91
2023/05/10 17:42:05;;;;;;;22.65;9.48;;;15.50;99.90;;;;;;4009040;29;20209;-91
2023/05/10 17:44:06;;;;;;;17.33;9.13;;;15.30;99.90;;;;;;4009002;29;20206;-91
2023/05/10 17:46:07;;;;;;;16.33;8.98;;;14.80;99.90;;;;;;4039416;29;20296;-91
2023/05/10 17:48:10;;;;;;;25.42;11.63;;;14.90;99.90;;;;;;4008874;29;20190;-91
2023/05/10 17:50:10;;;;;;;26.35;13.38;;;14.60;99.90;;;;;;4039552;29;20192;-92
2023/05/10 17:52:11;;;;;;;23.38;13.45;;;14.40;99.90;;;;;;4008863;29;20663;-92
2023/05/10 17:54:12;;;;;;;23.02;13.68;;;14.30;99.90;;;;;;4039478;29;20698;-93
2023/05/10 17:56:13;;;;;;;30.13;15.48;;;14.30;99.90;;;;;;4009036;29;20195;-92
2023/05/10 17:58:14;;;;;;;26.42;14.45;;;14.40;99.90;;;;;;4023901;29;20585;-91
2023/05/10 18:00:15;;;;;;;28.92;14.38;;;14.40;99.90;;;;;;4023878;29;20190;-94
2023/05/10 18:02:16;;;;;;;28.58;15.85;;;14.50;99.90;;;;;;4008586;29;20167;-92
2023/05/10 18:04:17;;;;;;;33.80;17.00;;;14.60;99.90;;;;;;4008499;29;20207;-92
2023/05/10 18:06:17;;;;;;;30.75;16.17;;;14.60;99.90;;;;;;4008555;29;20218;-91
2023/05/10 18:08:21;;;;;;;29.60;15.73;;;14.60;99.90;;;;;;4008469;29;20183;-92
2023/05/10 18:10:25;;;;;;;26.95;14.15;;;14.60;99.90;;;;;;4008770;29;20211;-93
2023/05/10 18:12:26;;;;;;;31.23;13.45;;;14.50;99.90;;;;;;4008536;29;20228;-92
2023/05/10 18:14:27;;;;;;;26.90;12.40;;;14.60;99.90;;;;;;4008520;29;20261;-91
2023/05/10 18:16:28;;;;;;;23.85;12.95;;;14.60;99.90;;;;;;4008415;29;20179;-92
2023/05/10 18:18:28;;;;;;;27.15;13.43;;;14.80;99.90;;;;;;4008908;29;20171;-91
2023/05/10 18:20:30;;;;;;;26.67;13.38;;;15.00;99.90;;;;;;4023397;29;20182;-91
2023/05/10 18:22:31;;;;;;;25.80;13.68;;;15.10;99.90;;;;;;4001278;29;20191;-92
2023/05/10 18:24:32;;;;;;;27.65;13.38;;;15.10;99.90;;;;;;4016126;29;20209;-92
2023/05/10 18:26:33;;;;;;;23.30;12.38;;;15.10;99.90;;;;;;4008335;29;20218;-92
2023/05/10 18:28:35;;;;;;;21.90;11.23;;;15.20;99.90;;;;;;4008012;29;20179;-91
2023/05/10 18:30:36;;;;;;;28.90;11.65;;;15.20;99.90;;;;;;4008270;29;20186;-93
2023/05/10 18:32:38;;;;;;;20.42;11.05;;;15.20;99.90;;;;;;4008182;29;20283;-92
2023/05/10 18:34:39;;;;;;;22.65;11.10;;;15.30;99.90;;;;;;4007776;29;20207;-92
2023/05/10 18:36:42;;;;;;;27.13;11.68;;;15.30;99.90;;;;;;4008173;29;20182;-92
2023/05/10 18:38:43;;;;;;;23.55;11.23;;;15.30;99.90;;;;;;4008029;29;20224;-96
2023/05/10 18:40:46;;;;;;;25.75;11.90;;;15.30;99.90;;;;;;4007956;29;20695;-92
2023/05/10 18:42:48;;;;;;;20.17;11.63;;;15.40;99.90;;;;;;4008532;29;20282;-92
2023/05/10 18:44:49;;;;;;;21.83;11.50;;;15.40;99.90;;;;;;4008137;29;20195;-92
2023/05/10 18:46:52;;;;;;;23.10;11.00;;;15.30;99.90;;;;;;4007841;29;20272;-92
2023/05/10 18:48:53;;;;;;;18.25;11.57;;;15.30;99.90;;;;;;4008001;29;20210;-92
2023/05/10 18:50:54;;;;;;;20.85;11.32;;;15.20;99.90;;;;;;4007910;29;20812;-93
2023/05/10 18:52:55;;;;;;;21.40;12.13;;;15.20;99.90;;;;;;4008264;29;20421;-94
2023/05/10 18:54:56;;;;;;;20.58;13.07;;;15.20;99.90;;;;;;4007928;29;20298;-92
2023/05/10 18:56:57;;;;;;;26.20;12.80;;;15.30;99.90;;;;;;4007955;29;20190;-95
2023/05/10 18:58:58;;;;;;;20.95;13.45;;;15.30;99.90;;;;;;4007748;29;20278;-92
2023/05/10 19:00:59;;;;;;;25.80;13.25;;;15.30;99.90;;;;;;4007592;29;20179;-92
2023/05/10 19:02:59;;;;;;;29.42;13.68;;;15.10;99.90;;;;;;4007593;29;20171;-92
2023/05/10 19:05:01;;;;;;;22.65;12.63;;;15.20;99.90;;;;;;4007531;29;20217;-92
2023/05/10 19:07:02;;;;;;;24.48;12.93;;;15.20;99.90;;;;;;4022846;29;20241;-91
2023/05/10 19:09:03;;;;;;;25.70;11.90;;;15.20;99.90;;;;;;4007675;29;20217;-92
2023/05/10 19:11:04;;;;;;;19.83;10.50;;;15.10;99.90;;;;;;4008043;29;20191;-92
2023/05/10 19:13:04;;;;;;;22.55;10.80;;;15.10;99.90;;;;;;4007920;29;20262;-93
2023/05/10 19:15:06;;;;;;;25.00;11.45;;;15.10;99.90;;;;;;4022845;29;20209;-92
2023/05/10 19:17:07;;;;;;;27.70;10.60;;;15.10;99.90;;;;;;4007763;29;20207;-92